PWSweather.com
Personal Weather Stations
Station Observations
IMAZOWIE6
WarszawaPL

WarszawaPL

Lat: 52.27957, Lon: 21.05489

Elevation: 100

Station Type: WS1080

http://stacjapogody.waw.pl/

High Low Average
Temperature 85.5°F29.7°C 58.6°F14.8°C 70.4°F21.3°C
Dew Point -164.3°F-109.1°C -166.9°F-110.5°C -165.8°F-109.9°C
Winds Calm Calm Calm Calm Calm NCalm N
Wind Gusts 0.6 mph1.0 kmh -- --
Humidity - - -
Pressure 29.45 in997.3 mb 29.36 in994.2 mb -
Precipitation 0.00 in0.0 mm - -
Hour Temp Dew Point Humidity Winds Wind Gusts Pressure Precip Precip Rate Daily Precip Total
12:02 AM 62.6°F17.0°C -166.5°F-110.3°C - Calm Calm -- 29.37 in994.6 mb 0.00 in0.0 mm 0.00 in0.0 mm 0.00 in0.0 mm
12:17 AM 62.6°F17.0°C -166.5°F-110.3°C - Calm Calm -- 29.37 in994.6 mb 0.00 in0.0 mm 0.00 in0.0 mm 0.00 in0.0 mm
12:32 AM 61.9°F16.6°C -166.6°F-110.3°C - Calm Calm -- 29.38 in994.9 mb 0.00 in0.0 mm 0.00 in0.0 mm 0.00 in0.0 mm
12:47 AM 61.5°F16.4°C -166.6°F-110.3°C - Calm Calm -- 29.38 in994.9 mb 0.00 in0.0 mm 0.00 in0.0 mm 0.00 in0.0 mm
01:02 AM 61.3°F16.3°C -166.7°F-110.4°C - Calm Calm -- 29.37 in994.6 mb 0.00 in0.0 mm 0.00 in0.0 mm 0.00 in0.0 mm
01:17 AM 61.0°F16.1°C -166.7°F-110.4°C - Calm Calm -- 29.37 in994.6 mb 0.00 in0.0 mm 0.00 in0.0 mm 0.00 in0.0 mm
01:32 AM 60.4°F15.8°C -166.8°F-110.4°C - Calm Calm -- 29.38 in994.9 mb 0.00 in0.0 mm 0.00 in0.0 mm 0.00 in0.0 mm
01:47 AM 59.5°F15.3°C -166.8°F-110.4°C - Calm Calm -- 29.38 in994.9 mb 0.00 in0.0 mm 0.00 in0.0 mm 0.00 in0.0 mm
02:00 AM 59.5°F15.3°C -166.8°F-110.4°C - Calm Calm -- 29.38 in994.9 mb 0.00 in0.0 mm 0.00 in0.0 mm 0.00 in0.0 mm
02:17 AM 59.4°F15.2°C -166.9°F-110.5°C - Calm Calm -- 29.38 in994.9 mb 0.00 in0.0 mm 0.00 in0.0 mm 0.00 in0.0 mm
02:32 AM 59.4°F15.2°C -166.9°F-110.5°C - Calm Calm -- 29.38 in994.9 mb 0.00 in0.0 mm 0.00 in0.0 mm 0.00 in0.0 mm
02:47 AM 59.9°F15.5°C -166.8°F-110.4°C - Calm Calm -- 29.38 in994.9 mb 0.00 in0.0 mm 0.00 in0.0 mm 0.00 in0.0 mm
03:02 AM 59.4°F15.2°C -166.9°F-110.5°C - Calm Calm -- 29.38 in994.9 mb 0.00 in0.0 mm 0.00 in0.0 mm 0.00 in0.0 mm
03:17 AM 58.6°F14.8°C -166.9°F-110.5°C - Calm Calm -- 29.38 in994.9 mb 0.00 in0.0 mm 0.00 in0.0 mm 0.00 in0.0 mm
03:32 AM 58.8°F14.9°C -166.9°F-110.5°C - Calm Calm -- 29.38 in994.9 mb 0.00 in0.0 mm 0.00 in0.0 mm 0.00 in0.0 mm
03:47 AM 58.8°F14.9°C -166.9°F-110.5°C - Calm Calm -- 29.38 in994.9 mb 0.00 in0.0 mm 0.00 in0.0 mm 0.00 in0.0 mm
04:02 AM 61.5°F16.4°C -166.6°F-110.3°C - Calm Calm -- 29.38 in994.9 mb 0.00 in0.0 mm 0.00 in0.0 mm 0.00 in0.0 mm
04:17 AM 64.2°F17.9°C -166.4°F-110.2°C - Calm Calm -- 29.39 in995.3 mb 0.00 in0.0 mm 0.00 in0.0 mm 0.00 in0.0 mm
04:32 AM 67.6°F19.8°C -166.0°F-110.0°C - Calm Calm -- 29.39 in995.3 mb 0.00 in0.0 mm 0.00 in0.0 mm 0.00 in0.0 mm
04:47 AM 70.3°F21.3°C -165.8°F-109.9°C - Calm Calm -- 29.40 in995.6 mb 0.00 in0.0 mm 0.00 in0.0 mm 0.00 in0.0 mm
05:02 AM 71.2°F21.8°C -165.7°F-109.8°C - Calm Calm -- 29.40 in995.6 mb 0.00 in0.0 mm 0.00 in0.0 mm 0.00 in0.0 mm
05:17 AM 73.8°F23.2°C -165.4°F-109.7°C - Calm Calm -- 29.40 in995.6 mb 0.00 in0.0 mm 0.00 in0.0 mm 0.00 in0.0 mm
05:32 AM 73.9°F23.3°C -165.4°F-109.7°C - Calm Calm -- 29.39 in995.3 mb 0.00 in0.0 mm 0.00 in0.0 mm 0.00 in0.0 mm
05:47 AM 74.1°F23.4°C -165.4°F-109.7°C - Calm Calm -- 29.39 in995.3 mb 0.00 in0.0 mm 0.00 in0.0 mm 0.00 in0.0 mm
06:02 AM 74.7°F23.7°C -165.3°F-109.6°C - Calm Calm -- 29.39 in995.3 mb 0.00 in0.0 mm 0.00 in0.0 mm 0.00 in0.0 mm
06:17 AM 73.9°F23.3°C -165.4°F-109.7°C - Calm Calm -- 29.38 in994.9 mb 0.00 in0.0 mm 0.00 in0.0 mm 0.00 in0.0 mm
06:32 AM 75.0°F23.9°C -165.3°F-109.6°C - Calm Calm -- 29.38 in994.9 mb 0.00 in0.0 mm 0.00 in0.0 mm 0.00 in0.0 mm
06:47 AM 75.0°F23.9°C -165.3°F-109.6°C - Calm Calm -- 29.38 in994.9 mb 0.00 in0.0 mm 0.00 in0.0 mm 0.00 in0.0 mm
07:02 AM 74.3°F23.5°C -165.4°F-109.7°C - Calm Calm -- 29.38 in994.9 mb 0.00 in0.0 mm 0.00 in0.0 mm 0.00 in0.0 mm
07:17 AM 73.6°F23.1°C -165.4°F-109.7°C - Calm Calm -- 29.37 in994.6 mb 0.00 in0.0 mm 0.00 in0.0 mm 0.00 in0.0 mm
07:32 AM 75.9°F24.4°C -165.2°F-109.6°C - Calm Calm -- 29.38 in994.9 mb 0.00 in0.0 mm 0.00 in0.0 mm 0.00 in0.0 mm
07:47 AM 75.4°F24.1°C -165.3°F-109.6°C - Calm Calm -- 29.37 in994.6 mb 0.00 in0.0 mm 0.00 in0.0 mm 0.00 in0.0 mm
08:02 AM 75.7°F24.3°C -165.2°F-109.6°C - Calm Calm -- 29.37 in994.6 mb 0.00 in0.0 mm 0.00 in0.0 mm 0.00 in0.0 mm
08:17 AM 80.2°F26.8°C -164.8°F-109.3°C - Calm Calm -- 29.38 in994.9 mb 0.00 in0.0 mm 0.00 in0.0 mm 0.00 in0.0 mm
08:32 AM 81.3°F27.4°C -164.7°F-109.3°C - Calm Calm 0.6 mph1.0 kmh 29.38 in994.9 mb 0.00 in0.0 mm 0.00 in0.0 mm 0.00 in0.0 mm
08:47 AM 82.6°F28.1°C -164.5°F-109.2°C - Calm Calm -- 29.37 in994.6 mb 0.00 in0.0 mm 0.00 in0.0 mm 0.00 in0.0 mm
09:02 AM 84.0°F28.9°C -164.4°F-109.1°C - Calm Calm -- 29.37 in994.6 mb 0.00 in0.0 mm 0.00 in0.0 mm 0.00 in0.0 mm
09:17 AM 85.5°F29.7°C -164.3°F-109.1°C - Calm Calm -- 29.38 in994.9 mb 0.00 in0.0 mm 0.00 in0.0 mm 0.00 in0.0 mm
09:32 AM 80.1°F26.7°C -164.8°F-109.3°C - Calm Calm -- 29.38 in994.9 mb 0.00 in0.0 mm 0.00 in0.0 mm 0.00 in0.0 mm
09:47 AM 75.9°F24.4°C -165.2°F-109.6°C - Calm Calm -- 29.38 in994.9 mb 0.00 in0.0 mm 0.00 in0.0 mm 0.00 in0.0 mm
10:02 AM 74.3°F23.5°C -165.4°F-109.7°C - Calm Calm -- 29.37 in994.6 mb 0.00 in0.0 mm 0.00 in0.0 mm 0.00 in0.0 mm
10:17 AM 74.3°F23.5°C -165.4°F-109.7°C - Calm Calm -- 29.37 in994.6 mb 0.00 in0.0 mm 0.00 in0.0 mm 0.00 in0.0 mm
10:32 AM 75.0°F23.9°C -165.3°F-109.6°C - Calm Calm -- 29.37 in994.6 mb 0.00 in0.0 mm 0.00 in0.0 mm 0.00 in0.0 mm
10:47 AM 76.5°F24.7°C -165.2°F-109.6°C - Calm Calm -- 29.37 in994.6 mb 0.00 in0.0 mm 0.00 in0.0 mm 0.00 in0.0 mm
11:02 AM 76.5°F24.7°C -165.2°F-109.6°C - Calm Calm -- 29.37 in994.6 mb 0.00 in0.0 mm 0.00 in0.0 mm 0.00 in0.0 mm
11:17 AM 74.1°F23.4°C -165.4°F-109.7°C - Calm Calm -- 29.37 in994.6 mb 0.00 in0.0 mm 0.00 in0.0 mm 0.00 in0.0 mm
11:32 AM 74.1°F23.4°C -165.4°F-109.7°C - Calm Calm -- 29.37 in994.6 mb 0.00 in0.0 mm 0.00 in0.0 mm 0.00 in0.0 mm
11:47 AM 74.1°F23.4°C -165.4°F-109.7°C - Calm Calm -- 29.37 in994.6 mb 0.00 in0.0 mm 0.00 in0.0 mm 0.00 in0.0 mm
12:02 PM 75.7°F24.3°C -165.2°F-109.6°C - Calm Calm -- 29.37 in994.6 mb 0.00 in0.0 mm 0.00 in0.0 mm 0.00 in0.0 mm
12:17 PM 76.1°F24.5°C -165.2°F-109.6°C - Calm Calm -- 29.37 in994.6 mb 0.00 in0.0 mm 0.00 in0.0 mm 0.00 in0.0 mm
12:32 PM 74.8°F23.8°C -165.3°F-109.6°C - Calm Calm -- 29.38 in994.9 mb 0.00 in0.0 mm 0.00 in0.0 mm 0.00 in0.0 mm
12:47 PM 73.0°F22.8°C -165.5°F-109.7°C - Calm Calm -- 29.37 in994.6 mb 0.00 in0.0 mm 0.00 in0.0 mm 0.00 in0.0 mm
01:02 PM 72.3°F22.4°C -165.6°F-109.8°C - Calm Calm -- 29.37 in994.6 mb 0.00 in0.0 mm 0.00 in0.0 mm 0.00 in0.0 mm
01:17 PM 72.5°F22.5°C -165.6°F-109.8°C - Calm Calm -- 29.37 in994.6 mb 0.00 in0.0 mm 0.00 in0.0 mm 0.00 in0.0 mm
01:32 PM 73.4°F23.0°C -165.5°F-109.7°C - Calm Calm -- 29.37 in994.6 mb 0.00 in0.0 mm 0.00 in0.0 mm 0.00 in0.0 mm
01:47 PM 74.1°F23.4°C -165.4°F-109.7°C - Calm Calm -- 29.37 in994.6 mb 0.00 in0.0 mm 0.00 in0.0 mm 0.00 in0.0 mm
02:02 PM 74.7°F23.7°C -165.3°F-109.6°C - Calm Calm -- 29.37 in994.6 mb 0.00 in0.0 mm 0.00 in0.0 mm 0.00 in0.0 mm
02:17 PM 74.5°F23.6°C -165.4°F-109.7°C - Calm Calm -- 29.37 in994.6 mb 0.00 in0.0 mm 0.00 in0.0 mm 0.00 in0.0 mm
02:32 PM 75.4°F24.1°C -165.3°F-109.6°C - Calm Calm -- 29.37 in994.6 mb 0.00 in0.0 mm 0.00 in0.0 mm 0.00 in0.0 mm
02:47 PM 75.4°F24.1°C -165.3°F-109.6°C - Calm Calm -- 29.37 in994.6 mb 0.00 in0.0 mm 0.00 in0.0 mm 0.00 in0.0 mm
03:02 PM 75.2°F24.0°C -165.3°F-109.6°C - Calm Calm -- 29.37 in994.6 mb 0.00 in0.0 mm 0.00 in0.0 mm 0.00 in0.0 mm
03:17 PM 74.3°F23.5°C -165.4°F-109.7°C - Calm Calm -- 29.37 in994.6 mb 0.00 in0.0 mm 0.00 in0.0 mm 0.00 in0.0 mm
03:32 PM 73.9°F23.3°C -165.4°F-109.7°C - Calm Calm -- 29.37 in994.6 mb 0.00 in0.0 mm 0.00 in0.0 mm 0.00 in0.0 mm
03:47 PM 73.6°F23.1°C -165.4°F-109.7°C - Calm Calm -- 29.37 in994.6 mb 0.00 in0.0 mm 0.00 in0.0 mm 0.00 in0.0 mm
04:02 PM 73.0°F22.8°C -165.5°F-109.7°C - Calm Calm -- 29.37 in994.6 mb 0.00 in0.0 mm 0.00 in0.0 mm 0.00 in0.0 mm
04:17 PM 72.5°F22.5°C -165.6°F-109.8°C - Calm Calm -- 29.36 in994.2 mb 0.00 in0.0 mm 0.00 in0.0 mm 0.00 in0.0 mm
04:32 PM 72.1°F22.3°C -165.6°F-109.8°C - Calm Calm -- 29.36 in994.2 mb 0.00 in0.0 mm 0.00 in0.0 mm 0.00 in0.0 mm
04:47 PM 71.6°F22.0°C -165.6°F-109.8°C - Calm Calm -- 29.36 in994.2 mb 0.00 in0.0 mm 0.00 in0.0 mm 0.00 in0.0 mm
05:02 PM 71.2°F21.8°C -165.7°F-109.8°C - Calm Calm -- 29.36 in994.2 mb 0.00 in0.0 mm 0.00 in0.0 mm 0.00 in0.0 mm
05:17 PM 71.4°F21.9°C -165.7°F-109.8°C - Calm Calm -- 29.36 in994.2 mb 0.00 in0.0 mm 0.00 in0.0 mm 0.00 in0.0 mm
05:32 PM 71.1°F21.7°C -165.7°F-109.8°C - Calm Calm -- 29.37 in994.6 mb 0.00 in0.0 mm 0.00 in0.0 mm 0.00 in0.0 mm
05:47 PM 70.7°F21.5°C -165.7°F-109.8°C - Calm Calm -- 29.37 in994.6 mb 0.00 in0.0 mm 0.00 in0.0 mm 0.00 in0.0 mm
06:02 PM 70.5°F21.4°C -165.7°F-109.8°C - Calm Calm -- 29.37 in994.6 mb 0.00 in0.0 mm 0.00 in0.0 mm 0.00 in0.0 mm
06:17 PM 70.2°F21.2°C -165.8°F-109.9°C - Calm Calm -- 29.38 in994.9 mb 0.00 in0.0 mm 0.00 in0.0 mm 0.00 in0.0 mm
06:32 PM 69.8°F21.0°C -165.8°F-109.9°C - Calm Calm -- 29.38 in994.9 mb 0.00 in0.0 mm 0.00 in0.0 mm 0.00 in0.0 mm
06:47 PM 69.6°F20.9°C -165.8°F-109.9°C - Calm Calm -- 29.38 in994.9 mb 0.00 in0.0 mm 0.00 in0.0 mm 0.00 in0.0 mm
07:02 PM 69.8°F21.0°C -165.8°F-109.9°C - Calm Calm -- 29.39 in995.3 mb 0.00 in0.0 mm 0.00 in0.0 mm 0.00 in0.0 mm
07:17 PM 69.3°F20.7°C -165.9°F-109.9°C - Calm Calm -- 29.40 in995.6 mb 0.00 in0.0 mm 0.00 in0.0 mm 0.00 in0.0 mm
07:32 PM 69.3°F20.7°C -165.9°F-109.9°C - Calm Calm -- 29.40 in995.6 mb 0.00 in0.0 mm 0.00 in0.0 mm 0.00 in0.0 mm
07:47 PM 69.1°F20.6°C -165.9°F-109.9°C - Calm Calm -- 29.42 in996.3 mb 0.00 in0.0 mm 0.00 in0.0 mm 0.00 in0.0 mm
08:02 PM 68.9°F20.5°C -165.9°F-109.9°C - Calm Calm -- 29.42 in996.3 mb 0.00 in0.0 mm 0.00 in0.0 mm 0.00 in0.0 mm
08:17 PM 68.9°F20.5°C -165.9°F-109.9°C - Calm Calm -- 29.42 in996.3 mb 0.00 in0.0 mm 0.00 in0.0 mm 0.00 in0.0 mm
08:32 PM 68.7°F20.4°C -165.9°F-109.9°C - Calm Calm -- 29.42 in996.3 mb 0.00 in0.0 mm 0.00 in0.0 mm 0.00 in0.0 mm
08:47 PM 68.7°F20.4°C -165.9°F-109.9°C - Calm Calm -- 29.42 in996.3 mb 0.00 in0.0 mm 0.00 in0.0 mm 0.00 in0.0 mm
09:02 PM 68.5°F20.3°C -165.9°F-109.9°C - Calm Calm -- 29.42 in996.3 mb 0.00 in0.0 mm 0.00 in0.0 mm 0.00 in0.0 mm
09:17 PM 68.2°F20.1°C -166.0°F-110.0°C - Calm Calm -- 29.43 in996.6 mb 0.00 in0.0 mm 0.00 in0.0 mm 0.00 in0.0 mm
09:32 PM 68.0°F20.0°C -166.0°F-110.0°C - Calm Calm -- 29.43 in996.6 mb 0.00 in0.0 mm 0.00 in0.0 mm 0.00 in0.0 mm
09:47 PM 67.3°F19.6°C -166.1°F-110.1°C - Calm Calm -- 29.43 in996.6 mb 0.00 in0.0 mm 0.00 in0.0 mm 0.00 in0.0 mm
10:02 PM 67.1°F19.5°C -166.1°F-110.1°C - Calm Calm -- 29.43 in996.6 mb 0.00 in0.0 mm 0.00 in0.0 mm 0.00 in0.0 mm
10:17 PM 66.7°F19.3°C -166.1°F-110.1°C - Calm Calm -- 29.43 in996.6 mb 0.00 in0.0 mm 0.00 in0.0 mm 0.00 in0.0 mm
10:32 PM 66.4°F19.1°C -166.2°F-110.1°C - Calm Calm -- 29.43 in996.6 mb 0.00 in0.0 mm 0.00 in0.0 mm 0.00 in0.0 mm
10:47 PM 66.2°F19.0°C -166.2°F-110.1°C - Calm Calm -- 29.43 in996.6 mb 0.00 in0.0 mm 0.00 in0.0 mm 0.00 in0.0 mm
11:02 PM 66.2°F19.0°C -166.2°F-110.1°C - Calm Calm -- 29.43 in996.6 mb 0.00 in0.0 mm 0.00 in0.0 mm 0.00 in0.0 mm
11:17 PM 65.8°F18.8°C -166.2°F-110.1°C - Calm Calm -- 29.44 in997.0 mb 0.00 in0.0 mm 0.00 in0.0 mm 0.00 in0.0 mm
11:30 PM 65.8°F18.8°C -166.2°F-110.1°C - Calm Calm -- 29.44 in997.0 mb 0.00 in0.0 mm 0.00 in0.0 mm 0.00 in0.0 mm
11:47 PM 66.0°F18.9°C -166.2°F-110.1°C - Calm Calm -- 29.45 in997.3 mb 0.00 in0.0 mm 0.00 in0.0 mm 0.00 in0.0 mm